sensor_id;sensor_type;location;lat;lon;timestamp;P1;durP1;ratioP1;P2;durP2;ratioP2
6463;SDS011;3265;42.694;23.282;2023-06-24T00:01:37;19.00;;;14.73;;
6463;SDS011;3265;42.694;23.282;2023-06-24T00:04:04;20.42;;;15.32;;
6463;SDS011;3265;42.694;23.282;2023-06-24T00:06:32;17.52;;;14.20;;
6463;SDS011;3265;42.694;23.282;2023-06-24T00:08:59;23.85;;;15.95;;
6463;SDS011;3265;42.694;23.282;2023-06-24T00:11:27;23.52;;;15.73;;
6463;SDS011;3265;42.694;23.282;2023-06-24T00:13:54;21.63;;;14.52;;
6463;SDS011;3265;42.694;23.282;2023-06-24T00:16:21;20.85;;;15.60;;
6463;SDS011;3265;42.694;23.282;2023-06-24T00:18:53;19.17;;;15.35;;
6463;SDS011;3265;42.694;23.282;2023-06-24T00:21:23;20.85;;;15.30;;
6463;SDS011;3265;42.694;23.282;2023-06-24T00:23:56;30.27;;;15.90;;
6463;SDS011;3265;42.694;23.282;2023-06-24T00:26:23;28.10;;;16.15;;
6463;SDS011;3265;42.694;23.282;2023-06-24T00:28:50;23.90;;;16.23;;
6463;SDS011;3265;42.694;23.282;2023-06-24T00:31:17;21.60;;;15.55;;
6463;SDS011;3265;42.694;23.282;2023-06-24T00:33:45;24.08;;;15.23;;
6463;SDS011;3265;42.694;23.282;2023-06-24T00:36:12;22.60;;;15.98;;
6463;SDS011;3265;42.694;23.282;2023-06-24T00:38:38;22.20;;;16.33;;
6463;SDS011;3265;42.694;23.282;2023-06-24T00:41:07;23.73;;;16.23;;
6463;SDS011;3265;42.694;23.282;2023-06-24T00:43:34;27.13;;;16.20;;
6463;SDS011;3265;42.694;23.282;2023-06-24T00:46:04;23.80;;;16.80;;
6463;SDS011;3265;42.694;23.282;2023-06-24T00:48:32;23.38;;;15.98;;
6463;SDS011;3265;42.694;23.282;2023-06-24T00:50:59;21.67;;;16.08;;
6463;SDS011;3265;42.694;23.282;2023-06-24T00:53:26;27.55;;;16.67;;
6463;SDS011;3265;42.694;23.282;2023-06-24T00:55:53;22.50;;;15.75;;
6463;SDS011;3265;42.694;23.282;2023-06-24T00:58:23;26.35;;;16.15;;
6463;SDS011;3265;42.694;23.282;2023-06-24T01:00:50;22.17;;;15.73;;
6463;SDS011;3265;42.694;23.282;2023-06-24T01:03:22;21.75;;;15.93;;
6463;SDS011;3265;42.694;23.282;2023-06-24T01:05:50;23.23;;;15.05;;
6463;SDS011;3265;42.694;23.282;2023-06-24T01:08:18;25.55;;;15.88;;
6463;SDS011;3265;42.694;23.282;2023-06-24T01:10:47;27.45;;;16.88;;
6463;SDS011;3265;42.694;23.282;2023-06-24T01:13:15;19.08;;;15.20;;
6463;SDS011;3265;42.694;23.282;2023-06-24T01:15:43;26.20;;;16.58;;
6463;SDS011;3265;42.694;23.282;2023-06-24T01:18:11;23.27;;;15.68;;
6463;SDS011;3265;42.694;23.282;2023-06-24T01:20:47;22.48;;;16.35;;
6463;SDS011;3265;42.694;23.282;2023-06-24T01:26:20;26.25;;;16.40;;
6463;SDS011;3265;42.694;23.282;2023-06-24T01:31:57;26.35;;;16.15;;
6463;SDS011;3265;42.694;23.282;2023-06-24T01:34:29;22.88;;;16.67;;
6463;SDS011;3265;42.694;23.282;2023-06-24T01:37:03;23.35;;;15.93;;
6463;SDS011;3265;42.694;23.282;2023-06-24T01:39:36;23.95;;;16.27;;
6463;SDS011;3265;42.694;23.282;2023-06-24T01:42:10;23.73;;;16.67;;
6463;SDS011;3265;42.694;23.282;2023-06-24T01:44:40;22.38;;;16.85;;
6463;SDS011;3265;42.694;23.282;2023-06-24T01:47:11;22.88;;;16.40;;
6463;SDS011;3265;42.694;23.282;2023-06-24T01:49:41;28.73;;;16.63;;
6463;SDS011;3265;42.694;23.282;2023-06-24T01:52:11;26.40;;;16.27;;
6463;SDS011;3265;42.694;23.282;2023-06-24T01:54:39;23.13;;;16.30;;
6463;SDS011;3265;42.694;23.282;2023-06-24T01:57:08;25.90;;;16.00;;
6463;SDS011;3265;42.694;23.282;2023-06-24T01:59:36;24.35;;;16.63;;
6463;SDS011;3265;42.694;23.282;2023-06-24T02:02:06;21.42;;;15.43;;
6463;SDS011;3265;42.694;23.282;2023-06-24T02:04:35;24.77;;;15.90;;
6463;SDS011;3265;42.694;23.282;2023-06-24T02:07:04;24.20;;;16.05;;
6463;SDS011;3265;42.694;23.282;2023-06-24T02:09:33;23.35;;;15.93;;
6463;SDS011;3265;42.694;23.282;2023-06-24T02:12:00;21.67;;;15.60;;
6463;SDS011;3265;42.694;23.282;2023-06-24T02:14:36;28.65;;;16.58;;
6463;SDS011;3265;42.694;23.282;2023-06-24T02:17:18;26.73;;;16.73;;
6463;SDS011;3265;42.694;23.282;2023-06-24T02:19:48;22.85;;;16.70;;
6463;SDS011;3265;42.694;23.282;2023-06-24T02:22:15;21.77;;;16.08;;
6463;SDS011;3265;42.694;23.282;2023-06-24T02:24:47;22.90;;;16.48;;
6463;SDS011;3265;42.694;23.282;2023-06-24T02:27:16;25.05;;;16.90;;
6463;SDS011;3265;42.694;23.282;2023-06-24T02:29:45;26.52;;;17.10;;
6463;SDS011;3265;42.694;23.282;2023-06-24T02:32:12;20.50;;;15.40;;
6463;SDS011;3265;42.694;23.282;2023-06-24T02:34:39;26.35;;;16.17;;
6463;SDS011;3265;42.694;23.282;2023-06-24T02:37:08;24.92;;;16.35;;
6463;SDS011;3265;42.694;23.282;2023-06-24T02:39:35;23.75;;;16.60;;
6463;SDS011;3265;42.694;23.282;2023-06-24T02:42:04;21.48;;;15.70;;
6463;SDS011;3265;42.694;23.282;2023-06-24T02:44:31;22.83;;;16.08;;
6463;SDS011;3265;42.694;23.282;2023-06-24T02:46:59;21.02;;;16.13;;
6463;SDS011;3265;42.694;23.282;2023-06-24T02:49:26;20.48;;;16.63;;
6463;SDS011;3265;42.694;23.282;2023-06-24T02:51:54;20.98;;;15.27;;
6463;SDS011;3265;42.694;23.282;2023-06-24T02:54:22;23.63;;;16.48;;
6463;SDS011;3265;42.694;23.282;2023-06-24T02:56:50;22.80;;;15.88;;
6463;SDS011;3265;42.694;23.282;2023-06-24T02:59:16;25.52;;;16.85;;
6463;SDS011;3265;42.694;23.282;2023-06-24T03:01:47;22.17;;;16.27;;
6463;SDS011;3265;42.694;23.282;2023-06-24T03:04:14;25.17;;;16.33;;
6463;SDS011;3265;42.694;23.282;2023-06-24T03:06:41;27.55;;;17.00;;
6463;SDS011;3265;42.694;23.282;2023-06-24T03:09:08;23.13;;;16.83;;
6463;SDS011;3265;42.694;23.282;2023-06-24T03:11:43;24.15;;;16.77;;
6463;SDS011;3265;42.694;23.282;2023-06-24T03:14:10;25.80;;;16.08;;
6463;SDS011;3265;42.694;23.282;2023-06-24T03:16:37;19.98;;;15.95;;
6463;SDS011;3265;42.694;23.282;2023-06-24T03:19:04;25.48;;;16.27;;
6463;SDS011;3265;42.694;23.282;2023-06-24T03:21:31;24.15;;;16.30;;
6463;SDS011;3265;42.694;23.282;2023-06-24T03:23:58;25.48;;;16.73;;
6463;SDS011;3265;42.694;23.282;2023-06-24T03:26:30;25.08;;;16.98;;
6463;SDS011;3265;42.694;23.282;2023-06-24T03:28:59;23.85;;;16.48;;
6463;SDS011;3265;42.694;23.282;2023-06-24T03:31:26;22.80;;;16.77;;
6463;SDS011;3265;42.694;23.282;2023-06-24T03:33:53;22.77;;;16.42;;
6463;SDS011;3265;42.694;23.282;2023-06-24T03:36:20;28.63;;;16.95;;
6463;SDS011;3265;42.694;23.282;2023-06-24T03:38:47;28.00;;;17.70;;
6463;SDS011;3265;42.694;23.282;2023-06-24T03:41:14;30.65;;;16.90;;
6463;SDS011;3265;42.694;23.282;2023-06-24T03:43:40;29.00;;;16.83;;
6463;SDS011;3265;42.694;23.282;2023-06-24T03:46:10;27.40;;;16.88;;
6463;SDS011;3265;42.694;23.282;2023-06-24T03:48:37;25.23;;;16.70;;
6463;SDS011;3265;42.694;23.282;2023-06-24T03:51:03;31.30;;;17.08;;
6463;SDS011;3265;42.694;23.282;2023-06-24T03:53:30;27.27;;;18.35;;
6463;SDS011;3265;42.694;23.282;2023-06-24T03:55:58;24.70;;;17.17;;
6463;SDS011;3265;42.694;23.282;2023-06-24T03:58:24;26.75;;;17.02;;
6463;SDS011;3265;42.694;23.282;2023-06-24T04:00:51;25.55;;;17.05;;
6463;SDS011;3265;42.694;23.282;2023-06-24T04:03:23;25.13;;;17.23;;
6463;SDS011;3265;42.694;23.282;2023-06-24T04:05:52;24.67;;;17.58;;
6463;SDS011;3265;42.694;23.282;2023-06-24T04:08:20;23.17;;;17.35;;
6463;SDS011;3265;42.694;23.282;2023-06-24T04:10:47;25.92;;;17.15;;
6463;SDS011;3265;42.694;23.282;2023-06-24T04:13:14;21.90;;;17.23;;
6463;SDS011;3265;42.694;23.282;2023-06-24T04:15:40;26.00;;;18.27;;
6463;SDS011;3265;42.694;23.282;2023-06-24T04:18:07;27.85;;;17.42;;
6463;SDS011;3265;42.694;23.282;2023-06-24T04:20:36;24.63;;;18.88;;
6463;SDS011;3265;42.694;23.282;2023-06-24T04:23:03;25.15;;;17.20;;
6463;SDS011;3265;42.694;23.282;2023-06-24T04:25:34;28.00;;;17.60;;
6463;SDS011;3265;42.694;23.282;2023-06-24T04:28:01;26.92;;;17.38;;
6463;SDS011;3265;42.694;23.282;2023-06-24T04:30:28;24.45;;;17.33;;
6463;SDS011;3265;42.694;23.282;2023-06-24T04:32:54;23.60;;;17.75;;
6463;SDS011;3265;42.694;23.282;2023-06-24T04:35:21;22.85;;;17.30;;
6463;SDS011;3265;42.694;23.282;2023-06-24T04:37:49;22.42;;;16.40;;
6463;SDS011;3265;42.694;23.282;2023-06-24T04:40:16;24.23;;;17.17;;
6463;SDS011;3265;42.694;23.282;2023-06-24T04:42:44;23.20;;;17.25;;
6463;SDS011;3265;42.694;23.282;2023-06-24T04:45:11;24.42;;;16.70;;
6463;SDS011;3265;42.694;23.282;2023-06-24T04:47:38;27.40;;;19.38;;
6463;SDS011;3265;42.694;23.282;2023-06-24T04:50:06;26.45;;;19.33;;
6463;SDS011;3265;42.694;23.282;2023-06-24T04:52:35;27.50;;;18.08;;
6463;SDS011;3265;42.694;23.282;2023-06-24T04:55:03;26.42;;;19.10;;
6463;SDS011;3265;42.694;23.282;2023-06-24T04:57:31;28.33;;;17.83;;
6463;SDS011;3265;42.694;23.282;2023-06-24T04:59:59;29.33;;;18.02;;
6463;SDS011;3265;42.694;23.282;2023-06-24T05:02:27;29.75;;;19.45;;
6463;SDS011;3265;42.694;23.282;2023-06-24T05:04:53;23.02;;;18.35;;
6463;SDS011;3265;42.694;23.282;2023-06-24T05:07:20;28.35;;;18.50;;
6463;SDS011;3265;42.694;23.282;2023-06-24T05:09:47;24.42;;;18.05;;
6463;SDS011;3265;42.694;23.282;2023-06-24T05:12:17;27.77;;;19.27;;
6463;SDS011;3265;42.694;23.282;2023-06-24T05:14:49;30.33;;;19.40;;
6463;SDS011;3265;42.694;23.282;2023-06-24T05:17:17;27.55;;;19.10;;
6463;SDS011;3265;42.694;23.282;2023-06-24T05:19:44;23.02;;;18.48;;
6463;SDS011;3265;42.694;23.282;2023-06-24T05:22:11;26.30;;;18.63;;
6463;SDS011;3265;42.694;23.282;2023-06-24T05:24:41;29.35;;;18.52;;
6463;SDS011;3265;42.694;23.282;2023-06-24T05:27:08;26.52;;;19.30;;
6463;SDS011;3265;42.694;23.282;2023-06-24T05:29:37;24.50;;;18.00;;
6463;SDS011;3265;42.694;23.282;2023-06-24T05:32:05;23.33;;;16.67;;
6463;SDS011;3265;42.694;23.282;2023-06-24T05:34:32;21.50;;;17.17;;
6463;SDS011;3265;42.694;23.282;2023-06-24T05:37:00;27.08;;;17.25;;
6463;SDS011;3265;42.694;23.282;2023-06-24T05:39:27;23.35;;;16.42;;
6463;SDS011;3265;42.694;23.282;2023-06-24T05:41:53;22.48;;;18.52;;
6463;SDS011;3265;42.694;23.282;2023-06-24T05:44:20;27.95;;;19.85;;
6463;SDS011;3265;42.694;23.282;2023-06-24T05:46:49;28.25;;;19.48;;
6463;SDS011;3265;42.694;23.282;2023-06-24T05:49:16;28.90;;;20.20;;
6463;SDS011;3265;42.694;23.282;2023-06-24T05:51:43;26.45;;;19.38;;
6463;SDS011;3265;42.694;23.282;2023-06-24T05:54:12;29.58;;;18.95;;
6463;SDS011;3265;42.694;23.282;2023-06-24T05:56:41;31.88;;;20.15;;
6463;SDS011;3265;42.694;23.282;2023-06-24T05:59:08;30.63;;;20.75;;
6463;SDS011;3265;42.694;23.282;2023-06-24T06:01:35;27.10;;;19.08;;
6463;SDS011;3265;42.694;23.282;2023-06-24T06:04:03;26.15;;;20.73;;
6463;SDS011;3265;42.694;23.282;2023-06-24T06:06:30;28.92;;;19.42;;
6463;SDS011;3265;42.694;23.282;2023-06-24T06:08:57;25.42;;;18.25;;
6463;SDS011;3265;42.694;23.282;2023-06-24T06:11:26;29.45;;;18.63;;
6463;SDS011;3265;42.694;23.282;2023-06-24T06:13:53;25.98;;;18.88;;
6463;SDS011;3265;42.694;23.282;2023-06-24T06:16:19;27.88;;;19.60;;
6463;SDS011;3265;42.694;23.282;2023-06-24T06:18:46;30.55;;;17.83;;
6463;SDS011;3265;42.694;23.282;2023-06-24T06:21:14;25.20;;;17.73;;
6463;SDS011;3265;42.694;23.282;2023-06-24T06:23:41;23.90;;;18.10;;
6463;SDS011;3265;42.694;23.282;2023-06-24T06:26:08;21.65;;;17.88;;
6463;SDS011;3265;42.694;23.282;2023-06-24T06:28:35;28.02;;;18.52;;
6463;SDS011;3265;42.694;23.282;2023-06-24T06:31:02;26.75;;;17.63;;
6463;SDS011;3265;42.694;23.282;2023-06-24T06:33:29;26.63;;;18.08;;
6463;SDS011;3265;42.694;23.282;2023-06-24T06:35:55;25.80;;;17.67;;
6463;SDS011;3265;42.694;23.282;2023-06-24T06:38:25;22.38;;;16.58;;
6463;SDS011;3265;42.694;23.282;2023-06-24T06:40:53;26.80;;;18.27;;
6463;SDS011;3265;42.694;23.282;2023-06-24T06:43:23;23.10;;;17.27;;
6463;SDS011;3265;42.694;23.282;2023-06-24T06:45:50;23.88;;;15.60;;
6463;SDS011;3265;42.694;23.282;2023-06-24T06:48:17;24.45;;;16.35;;
6463;SDS011;3265;42.694;23.282;2023-06-24T06:50:45;23.20;;;16.77;;
6463;SDS011;3265;42.694;23.282;2023-06-24T06:53:12;24.65;;;16.50;;
6463;SDS011;3265;42.694;23.282;2023-06-24T06:55:40;30.50;;;16.92;;
6463;SDS011;3265;42.694;23.282;2023-06-24T06:58:08;23.05;;;15.90;;
6463;SDS011;3265;42.694;23.282;2023-06-24T07:00:34;22.33;;;16.33;;
6463;SDS011;3265;42.694;23.282;2023-06-24T07:03:01;19.60;;;15.13;;
6463;SDS011;3265;42.694;23.282;2023-06-24T07:05:28;18.23;;;15.43;;
6463;SDS011;3265;42.694;23.282;2023-06-24T07:07:55;21.23;;;15.70;;
6463;SDS011;3265;42.694;23.282;2023-06-24T07:10:22;19.50;;;14.80;;
6463;SDS011;3265;42.694;23.282;2023-06-24T07:12:50;20.70;;;15.57;;
6463;SDS011;3265;42.694;23.282;2023-06-24T07:15:23;23.23;;;16.20;;
6463;SDS011;3265;42.694;23.282;2023-06-24T07:17:50;20.98;;;14.00;;
6463;SDS011;3265;42.694;23.282;2023-06-24T07:20:18;21.10;;;14.55;;
6463;SDS011;3265;42.694;23.282;2023-06-24T07:22:44;22.13;;;15.18;;
6463;SDS011;3265;42.694;23.282;2023-06-24T07:25:11;20.65;;;13.85;;
6463;SDS011;3265;42.694;23.282;2023-06-24T07:27:38;16.42;;;13.43;;
6463;SDS011;3265;42.694;23.282;2023-06-24T07:30:07;24.20;;;13.60;;
6463;SDS011;3265;42.694;23.282;2023-06-24T07:32:34;19.63;;;12.55;;
6463;SDS011;3265;42.694;23.282;2023-06-24T07:35:01;19.23;;;13.57;;
6463;SDS011;3265;42.694;23.282;2023-06-24T07:37:28;26.98;;;14.15;;
6463;SDS011;3265;42.694;23.282;2023-06-24T07:39:55;20.55;;;15.23;;
6463;SDS011;3265;42.694;23.282;2023-06-24T07:42:22;16.13;;;13.57;;
6463;SDS011;3265;42.694;23.282;2023-06-24T07:44:49;19.67;;;13.52;;
6463;SDS011;3265;42.694;23.282;2023-06-24T07:47:17;20.33;;;14.80;;
6463;SDS011;3265;42.694;23.282;2023-06-24T07:49:44;18.88;;;14.57;;
6463;SDS011;3265;42.694;23.282;2023-06-24T07:52:11;19.52;;;13.07;;
6463;SDS011;3265;42.694;23.282;2023-06-24T07:54:38;19.90;;;13.82;;
6463;SDS011;3265;42.694;23.282;2023-06-24T07:57:05;18.02;;;11.45;;
6463;SDS011;3265;42.694;23.282;2023-06-24T07:59:32;15.45;;;13.75;;
6463;SDS011;3265;42.694;23.282;2023-06-24T08:01:59;14.82;;;12.00;;
6463;SDS011;3265;42.694;23.282;2023-06-24T08:04:27;18.17;;;13.35;;
6463;SDS011;3265;42.694;23.282;2023-06-24T08:06:54;19.38;;;14.40;;
6463;SDS011;3265;42.694;23.282;2023-06-24T08:09:21;18.30;;;13.93;;
6463;SDS011;3265;42.694;23.282;2023-06-24T08:11:48;19.67;;;14.82;;
6463;SDS011;3265;42.694;23.282;2023-06-24T08:14:14;20.60;;;15.15;;
6463;SDS011;3265;42.694;23.282;2023-06-24T08:16:41;18.80;;;14.80;;
6463;SDS011;3265;42.694;23.282;2023-06-24T08:19:08;20.10;;;14.73;;
6463;SDS011;3265;42.694;23.282;2023-06-24T08:21:36;20.55;;;14.85;;
6463;SDS011;3265;42.694;23.282;2023-06-24T08:24:03;20.00;;;15.68;;
6463;SDS011;3265;42.694;23.282;2023-06-24T08:26:30;21.63;;;15.52;;
6463;SDS011;3265;42.694;23.282;2023-06-24T08:28:57;22.85;;;16.17;;
6463;SDS011;3265;42.694;23.282;2023-06-24T08:31:25;19.42;;;14.40;;
6463;SDS011;3265;42.694;23.282;2023-06-24T08:33:52;18.48;;;15.57;;
6463;SDS011;3265;42.694;23.282;2023-06-24T08:36:21;19.15;;;14.85;;
6463;SDS011;3265;42.694;23.282;2023-06-24T08:38:50;15.20;;;12.85;;
6463;SDS011;3265;42.694;23.282;2023-06-24T08:41:17;16.27;;;13.10;;
6463;SDS011;3265;42.694;23.282;2023-06-24T08:43:44;19.63;;;13.90;;
6463;SDS011;3265;42.694;23.282;2023-06-24T08:46:11;19.70;;;13.98;;
6463;SDS011;3265;42.694;23.282;2023-06-24T08:48:39;18.67;;;14.85;;
6463;SDS011;3265;42.694;23.282;2023-06-24T08:51:09;20.83;;;14.68;;
6463;SDS011;3265;42.694;23.282;2023-06-24T08:53:39;18.77;;;13.98;;
6463;SDS011;3265;42.694;23.282;2023-06-24T08:56:11;17.00;;;13.32;;
6463;SDS011;3265;42.694;23.282;2023-06-24T08:58:39;14.02;;;10.00;;
6463;SDS011;3265;42.694;23.282;2023-06-24T09:01:06;17.98;;;13.05;;
6463;SDS011;3265;42.694;23.282;2023-06-24T09:03:34;15.00;;;11.77;;
6463;SDS011;3265;42.694;23.282;2023-06-24T09:06:01;17.05;;;11.98;;
6463;SDS011;3265;42.694;23.282;2023-06-24T09:08:28;15.75;;;12.95;;
6463;SDS011;3265;42.694;23.282;2023-06-24T09:10:55;11.48;;;10.27;;
6463;SDS011;3265;42.694;23.282;2023-06-24T09:13:27;13.63;;;12.23;;
6463;SDS011;3265;42.694;23.282;2023-06-24T09:16:07;15.30;;;13.57;;
6463;SDS011;3265;42.694;23.282;2023-06-24T09:18:38;17.20;;;14.18;;
6463;SDS011;3265;42.694;23.282;2023-06-24T09:21:04;17.98;;;13.23;;
6463;SDS011;3265;42.694;23.282;2023-06-24T09:23:35;17.50;;;14.25;;
6463;SDS011;3265;42.694;23.282;2023-06-24T09:26:02;17.73;;;12.57;;
6463;SDS011;3265;42.694;23.282;2023-06-24T09:28:30;14.48;;;11.10;;
6463;SDS011;3265;42.694;23.282;2023-06-24T09:31:04;18.13;;;13.60;;
6463;SDS011;3265;42.694;23.282;2023-06-24T09:33:32;16.15;;;13.27;;
6463;SDS011;3265;42.694;23.282;2023-06-24T09:35:59;14.73;;;11.68;;
6463;SDS011;3265;42.694;23.282;2023-06-24T09:38:31;15.60;;;13.80;;
6463;SDS011;3265;42.694;23.282;2023-06-24T09:41:01;16.23;;;12.93;;
6463;SDS011;3265;42.694;23.282;2023-06-24T09:43:31;16.25;;;13.27;;
6463;SDS011;3265;42.694;23.282;2023-06-24T09:46:01;24.25;;;12.88;;
6463;SDS011;3265;42.694;23.282;2023-06-24T09:48:29;16.50;;;13.15;;
6463;SDS011;3265;42.694;23.282;2023-06-24T09:50:57;16.40;;;12.68;;
6463;SDS011;3265;42.694;23.282;2023-06-24T09:53:27;15.90;;;12.57;;
6463;SDS011;3265;42.694;23.282;2023-06-24T09:55:56;13.70;;;12.07;;
6463;SDS011;3265;42.694;23.282;2023-06-24T09:58:25;16.85;;;12.05;;
6463;SDS011;3265;42.694;23.282;2023-06-24T10:00:56;15.98;;;12.68;;
6463;SDS011;3265;42.694;23.282;2023-06-24T10:03:24;15.57;;;11.10;;
6463;SDS011;3265;42.694;23.282;2023-06-24T10:05:50;17.58;;;12.38;;
6463;SDS011;3265;42.694;23.282;2023-06-24T10:08:18;19.05;;;13.30;;
6463;SDS011;3265;42.694;23.282;2023-06-24T10:10:45;14.77;;;11.82;;
6463;SDS011;3265;42.694;23.282;2023-06-24T10:13:12;19.77;;;12.70;;
6463;SDS011;3265;42.694;23.282;2023-06-24T10:15:39;17.48;;;11.98;;
6463;SDS011;3265;42.694;23.282;2023-06-24T10:21:03;12.32;;;10.82;;
6463;SDS011;3265;42.694;23.282;2023-06-24T10:23:31;15.27;;;10.95;;
6463;SDS011;3265;42.694;23.282;2023-06-24T10:25:59;16.80;;;11.95;;
6463;SDS011;3265;42.694;23.282;2023-06-24T10:28:26;13.18;;;11.23;;
6463;SDS011;3265;42.694;23.282;2023-06-24T10:30:56;12.63;;;11.32;;
6463;SDS011;3265;42.694;23.282;2023-06-24T10:33:23;17.08;;;11.80;;
6463;SDS011;3265;42.694;23.282;2023-06-24T10:35:52;13.85;;;10.40;;
6463;SDS011;3265;42.694;23.282;2023-06-24T10:38:18;15.50;;;11.63;;
6463;SDS011;3265;42.694;23.282;2023-06-24T10:40:45;14.50;;;10.77;;
6463;SDS011;3265;42.694;23.282;2023-06-24T10:43:25;15.90;;;10.82;;
6463;SDS011;3265;42.694;23.282;2023-06-24T10:45:54;14.90;;;11.70;;
6463;SDS011;3265;42.694;23.282;2023-06-24T10:48:22;11.50;;;10.30;;
6463;SDS011;3265;42.694;23.282;2023-06-24T10:50:49;11.40;;;10.07;;
6463;SDS011;3265;42.694;23.282;2023-06-24T10:53:18;14.40;;;9.88;;
6463;SDS011;3265;42.694;23.282;2023-06-24T10:55:45;13.82;;;9.88;;
6463;SDS011;3265;42.694;23.282;2023-06-24T10:58:12;13.60;;;9.80;;
6463;SDS011;3265;42.694;23.282;2023-06-24T11:00:41;13.85;;;9.52;;
6463;SDS011;3265;42.694;23.282;2023-06-24T11:03:10;12.35;;;9.90;;
6463;SDS011;3265;42.694;23.282;2023-06-24T11:05:38;11.20;;;9.50;;
6463;SDS011;3265;42.694;23.282;2023-06-24T11:08:06;11.85;;;9.07;;
6463;SDS011;3265;42.694;23.282;2023-06-24T11:10:35;11.40;;;9.60;;
6463;SDS011;3265;42.694;23.282;2023-06-24T11:13:09;10.93;;;8.50;;
6463;SDS011;3265;42.694;23.282;2023-06-24T11:15:36;12.38;;;9.18;;
6463;SDS011;3265;42.694;23.282;2023-06-24T11:18:05;11.27;;;8.23;;
6463;SDS011;3265;42.694;23.282;2023-06-24T11:20:35;10.45;;;8.18;;
6463;SDS011;3265;42.694;23.282;2023-06-24T11:23:02;11.30;;;8.30;;
6463;SDS011;3265;42.694;23.282;2023-06-24T11:25:37;14.30;;;9.40;;
6463;SDS011;3265;42.694;23.282;2023-06-24T11:28:05;11.00;;;8.77;;
6463;SDS011;3265;42.694;23.282;2023-06-24T11:30:38;12.38;;;9.07;;
6463;SDS011;3265;42.694;23.282;2023-06-24T11:33:04;14.60;;;8.52;;
6463;SDS011;3265;42.694;23.282;2023-06-24T11:35:31;12.65;;;7.80;;
6463;SDS011;3265;42.694;23.282;2023-06-24T11:38:00;9.35;;;7.82;;
6463;SDS011;3265;42.694;23.282;2023-06-24T11:40:27;11.57;;;7.40;;
6463;SDS011;3265;42.694;23.282;2023-06-24T11:42:59;8.68;;;7.78;;
6463;SDS011;3265;42.694;23.282;2023-06-24T11:45:27;9.65;;;7.93;;
6463;SDS011;3265;42.694;23.282;2023-06-24T11:47:54;10.38;;;7.88;;
6463;SDS011;3265;42.694;23.282;2023-06-24T11:50:29;11.00;;;8.85;;
6463;SDS011;3265;42.694;23.282;2023-06-24T11:52:56;12.30;;;8.27;;
6463;SDS011;3265;42.694;23.282;2023-06-24T11:55:24;9.55;;;8.23;;
6463;SDS011;3265;42.694;23.282;2023-06-24T11:57:56;12.57;;;8.32;;
6463;SDS011;3265;42.694;23.282;2023-06-24T12:00:26;12.52;;;8.02;;
6463;SDS011;3265;42.694;23.282;2023-06-24T12:02:55;10.38;;;8.32;;
6463;SDS011;3265;42.694;23.282;2023-06-24T12:05:23;11.48;;;8.07;;
6463;SDS011;3265;42.694;23.282;2023-06-24T12:08:00;11.82;;;8.75;;
6463;SDS011;3265;42.694;23.282;2023-06-24T12:10:28;12.60;;;7.60;;
6463;SDS011;3265;42.694;23.282;2023-06-24T12:12:58;12.95;;;8.10;;
6463;SDS011;3265;42.694;23.282;2023-06-24T12:15:26;12.73;;;7.72;;
6463;SDS011;3265;42.694;23.282;2023-06-24T12:17:54;10.45;;;8.10;;
6463;SDS011;3265;42.694;23.282;2023-06-24T12:20:21;12.23;;;7.72;;
6463;SDS011;3265;42.694;23.282;2023-06-24T12:22:48;15.40;;;8.20;;
6463;SDS011;3265;42.694;23.282;2023-06-24T12:25:15;9.00;;;7.53;;
6463;SDS011;3265;42.694;23.282;2023-06-24T12:27:43;12.02;;;7.47;;
6463;SDS011;3265;42.694;23.282;2023-06-24T12:30:12;10.38;;;7.90;;
6463;SDS011;3265;42.694;23.282;2023-06-24T12:32:39;9.60;;;8.35;;
6463;SDS011;3265;42.694;23.282;2023-06-24T12:35:06;9.82;;;8.02;;
6463;SDS011;3265;42.694;23.282;2023-06-24T12:37:34;11.98;;;8.63;;
6463;SDS011;3265;42.694;23.282;2023-06-24T12:40:01;12.45;;;8.75;;
6463;SDS011;3265;42.694;23.282;2023-06-24T12:42:28;12.18;;;8.50;;
6463;SDS011;3265;42.694;23.282;2023-06-24T12:44:55;10.48;;;8.65;;
6463;SDS011;3265;42.694;23.282;2023-06-24T12:47:24;14.05;;;8.30;;
6463;SDS011;3265;42.694;23.282;2023-06-24T12:49:50;11.55;;;8.38;;
6463;SDS011;3265;42.694;23.282;2023-06-24T12:52:18;14.00;;;8.35;;
6463;SDS011;3265;42.694;23.282;2023-06-24T12:54:45;10.90;;;8.40;;
6463;SDS011;3265;42.694;23.282;2023-06-24T12:57:13;8.70;;;7.80;;
6463;SDS011;3265;42.694;23.282;2023-06-24T12:59:40;13.35;;;8.40;;
6463;SDS011;3265;42.694;23.282;2023-06-24T13:02:07;14.23;;;8.70;;
6463;SDS011;3265;42.694;23.282;2023-06-24T13:04:35;12.48;;;8.73;;
6463;SDS011;3265;42.694;23.282;2023-06-24T13:07:02;10.27;;;8.73;;
6463;SDS011;3265;42.694;23.282;2023-06-24T13:09:30;12.55;;;8.65;;
6463;SDS011;3265;42.694;23.282;2023-06-24T13:11:56;14.02;;;9.02;;
6463;SDS011;3265;42.694;23.282;2023-06-24T13:14:23;12.07;;;9.23;;
6463;SDS011;3265;42.694;23.282;2023-06-24T13:16:52;16.35;;;8.98;;
6463;SDS011;3265;42.694;23.282;2023-06-24T13:19:18;19.17;;;9.75;;
6463;SDS011;3265;42.694;23.282;2023-06-24T13:21:47;18.42;;;9.57;;
6463;SDS011;3265;42.694;23.282;2023-06-24T13:24:14;26.02;;;10.40;;
6463;SDS011;3265;42.694;23.282;2023-06-24T13:26:40;20.90;;;10.60;;
6463;SDS011;3265;42.694;23.282;2023-06-24T13:29:07;19.48;;;10.00;;
6463;SDS011;3265;42.694;23.282;2023-06-24T13:31:34;18.70;;;9.35;;
6463;SDS011;3265;42.694;23.282;2023-06-24T13:34:01;20.20;;;9.63;;
6463;SDS011;3265;42.694;23.282;2023-06-24T13:36:30;20.23;;;7.97;;
6463;SDS011;3265;42.694;23.282;2023-06-24T13:39:01;23.00;;;8.23;;
6463;SDS011;3265;42.694;23.282;2023-06-24T13:41:29;32.50;;;8.57;;
6463;SDS011;3265;42.694;23.282;2023-06-24T13:43:57;23.83;;;7.57;;
6463;SDS011;3265;42.694;23.282;2023-06-24T13:46:25;31.58;;;8.40;;
6463;SDS011;3265;42.694;23.282;2023-06-24T13:48:52;26.38;;;8.52;;
6463;SDS011;3265;42.694;23.282;2023-06-24T13:51:18;23.25;;;9.07;;
6463;SDS011;3265;42.694;23.282;2023-06-24T13:53:46;18.73;;;7.90;;
6463;SDS011;3265;42.694;23.282;2023-06-24T13:56:15;27.02;;;10.02;;
6463;SDS011;3265;42.694;23.282;2023-06-24T13:58:42;28.02;;;8.82;;
6463;SDS011;3265;42.694;23.282;2023-06-24T14:01:09;34.33;;;9.68;;
6463;SDS011;3265;42.694;23.282;2023-06-24T14:03:36;19.60;;;8.25;;
6463;SDS011;3265;42.694;23.282;2023-06-24T14:06:02;19.13;;;7.65;;
6463;SDS011;3265;42.694;23.282;2023-06-24T14:08:30;17.40;;;8.00;;
6463;SDS011;3265;42.694;23.282;2023-06-24T14:10:58;17.33;;;8.07;;
6463;SDS011;3265;42.694;23.282;2023-06-24T14:13:27;16.73;;;7.20;;
6463;SDS011;3265;42.694;23.282;2023-06-24T14:15:54;12.75;;;7.05;;
6463;SDS011;3265;42.694;23.282;2023-06-24T14:18:22;10.93;;;6.88;;
6463;SDS011;3265;42.694;23.282;2023-06-24T14:20:50;10.13;;;6.78;;
6463;SDS011;3265;42.694;23.282;2023-06-24T14:23:17;11.38;;;6.47;;
6463;SDS011;3265;42.694;23.282;2023-06-24T14:25:43;16.02;;;6.38;;
6463;SDS011;3265;42.694;23.282;2023-06-24T14:28:10;10.70;;;6.43;;
6463;SDS011;3265;42.694;23.282;2023-06-24T14:30:38;12.30;;;6.43;;
6463;SDS011;3265;42.694;23.282;2023-06-24T14:33:06;12.10;;;6.50;;
6463;SDS011;3265;42.694;23.282;2023-06-24T14:35:33;12.00;;;6.60;;
6463;SDS011;3265;42.694;23.282;2023-06-24T14:38:00;16.58;;;6.63;;
6463;SDS011;3265;42.694;23.282;2023-06-24T14:40:27;16.45;;;6.13;;
6463;SDS011;3265;42.694;23.282;2023-06-24T14:42:54;19.73;;;6.72;;
6463;SDS011;3265;42.694;23.282;2023-06-24T14:45:20;16.10;;;6.18;;
6463;SDS011;3265;42.694;23.282;2023-06-24T14:47:49;11.52;;;6.47;;
6463;SDS011;3265;42.694;23.282;2023-06-24T14:50:15;21.08;;;7.07;;
6463;SDS011;3265;42.694;23.282;2023-06-24T14:52:42;19.92;;;7.43;;